sensor_id;sensor_type;location;lat;lon;timestamp;temperature;humidity
5850;DHT22;2951;47.712;9.400;2023-04-03T00:01:03;5.10;99.90
5850;DHT22;2951;47.712;9.400;2023-04-03T00:03:29;5.10;99.90
5850;DHT22;2951;47.712;9.400;2023-04-03T00:05:56;5.10;99.90
5850;DHT22;2951;47.712;9.400;2023-04-03T00:08:23;5.00;99.90
5850;DHT22;2951;47.712;9.400;2023-04-03T00:10:50;5.10;99.90
5850;DHT22;2951;47.712;9.400;2023-04-03T00:13:17;5.10;99.90
5850;DHT22;2951;47.712;9.400;2023-04-03T00:15:44;5.10;99.90
5850;DHT22;2951;47.712;9.400;2023-04-03T00:18:10;5.00;99.90
5850;DHT22;2951;47.712;9.400;2023-04-03T00:20:37;5.00;99.90
5850;DHT22;2951;47.712;9.400;2023-04-03T00:23:04;5.00;99.90
5850;DHT22;2951;47.712;9.400;2023-04-03T00:25:31;5.10;99.90
5850;DHT22;2951;47.712;9.400;2023-04-03T00:27:58;5.20;99.90
5850;DHT22;2951;47.712;9.400;2023-04-03T00:30:25;5.20;99.90
5850;DHT22;2951;47.712;9.400;2023-04-03T00:32:52;5.10;99.90
5850;DHT22;2951;47.712;9.400;2023-04-03T00:35:20;5.10;99.90
5850;DHT22;2951;47.712;9.400;2023-04-03T00:37:47;5.10;99.90
5850;DHT22;2951;47.712;9.400;2023-04-03T00:40:15;4.90;99.90
5850;DHT22;2951;47.712;9.400;2023-04-03T00:42:43;5.00;99.90
5850;DHT22;2951;47.712;9.400;2023-04-03T00:47:38;4.80;99.90
5850;DHT22;2951;47.712;9.400;2023-04-03T00:50:05;4.80;99.90
5850;DHT22;2951;47.712;9.400;2023-04-03T00:52:34;4.80;99.90
5850;DHT22;2951;47.712;9.400;2023-04-03T00:55:02;4.70;99.90
5850;DHT22;2951;47.712;9.400;2023-04-03T00:57:30;4.70;99.90
5850;DHT22;2951;47.712;9.400;2023-04-03T00:59:59;4.80;99.90
5850;DHT22;2951;47.712;9.400;2023-04-03T01:02:27;4.60;99.90
5850;DHT22;2951;47.712;9.400;2023-04-03T01:04:54;4.50;99.90
5850;DHT22;2951;47.712;9.400;2023-04-03T01:07:26;4.50;99.90
5850;DHT22;2951;47.712;9.400;2023-04-03T01:09:56;4.50;99.90
5850;DHT22;2951;47.712;9.400;2023-04-03T01:12:24;4.50;99.90
5850;DHT22;2951;47.712;9.400;2023-04-03T01:14:55;4.50;99.90
5850;DHT22;2951;47.712;9.400;2023-04-03T01:25:17;4.20;99.90
5850;DHT22;2951;47.712;9.400;2023-04-03T01:27:44;4.20;99.90
5850;DHT22;2951;47.712;9.400;2023-04-03T01:30:10;4.10;99.90
5850;DHT22;2951;47.712;9.400;2023-04-03T01:32:38;4.10;99.90
5850;DHT22;2951;47.712;9.400;2023-04-03T01:35:07;4.00;99.90
5850;DHT22;2951;47.712;9.400;2023-04-03T01:37:33;4.00;99.90
5850;DHT22;2951;47.712;9.400;2023-04-03T01:40:00;3.90;99.90
5850;DHT22;2951;47.712;9.400;2023-04-03T01:42:27;4.00;99.90
5850;DHT22;2951;47.712;9.400;2023-04-03T01:44:54;4.00;99.90
5850;DHT22;2951;47.712;9.400;2023-04-03T01:47:21;4.00;99.90
5850;DHT22;2951;47.712;9.400;2023-04-03T01:49:48;3.90;99.90
5850;DHT22;2951;47.712;9.400;2023-04-03T01:52:15;3.80;99.90
5850;DHT22;2951;47.712;9.400;2023-04-03T01:54:42;3.80;99.90
5850;DHT22;2951;47.712;9.400;2023-04-03T01:57:08;3.80;99.90
5850;DHT22;2951;47.712;9.400;2023-04-03T01:59:35;3.80;99.90
5850;DHT22;2951;47.712;9.400;2023-04-03T02:02:02;3.80;99.90
5850;DHT22;2951;47.712;9.400;2023-04-03T02:04:28;3.90;99.90
5850;DHT22;2951;47.712;9.400;2023-04-03T02:06:55;3.80;99.90
5850;DHT22;2951;47.712;9.400;2023-04-03T02:09:22;3.80;99.90
5850;DHT22;2951;47.712;9.400;2023-04-03T02:11:48;3.80;99.90
5850;DHT22;2951;47.712;9.400;2023-04-03T02:14:15;3.70;99.90
5850;DHT22;2951;47.712;9.400;2023-04-03T02:16:42;3.60;99.90
5850;DHT22;2951;47.712;9.400;2023-04-03T02:19:09;3.60;99.90
5850;DHT22;2951;47.712;9.400;2023-04-03T02:21:35;3.60;99.90
5850;DHT22;2951;47.712;9.400;2023-04-03T02:24:05;3.60;99.90
5850;DHT22;2951;47.712;9.400;2023-04-03T02:26:31;3.60;99.90
5850;DHT22;2951;47.712;9.400;2023-04-03T02:28:58;3.60;99.90
5850;DHT22;2951;47.712;9.400;2023-04-03T02:31:25;3.60;99.90
5850;DHT22;2951;47.712;9.400;2023-04-03T02:33:51;3.60;99.90
5850;DHT22;2951;47.712;9.400;2023-04-03T02:36:18;3.60;99.90
5850;DHT22;2951;47.712;9.400;2023-04-03T02:38:45;3.50;99.90
5850;DHT22;2951;47.712;9.400;2023-04-03T02:41:12;3.50;99.90
5850;DHT22;2951;47.712;9.400;2023-04-03T02:43:39;3.50;99.90
5850;DHT22;2951;47.712;9.400;2023-04-03T02:46:05;3.50;99.90
5850;DHT22;2951;47.712;9.400;2023-04-03T02:48:33;3.40;99.90
5850;DHT22;2951;47.712;9.400;2023-04-03T02:50:59;3.50;99.90
5850;DHT22;2951;47.712;9.400;2023-04-03T02:53:28;3.40;99.90
5850;DHT22;2951;47.712;9.400;2023-04-03T02:55:55;3.40;99.90
5850;DHT22;2951;47.712;9.400;2023-04-03T02:58:21;3.30;99.90
5850;DHT22;2951;47.712;9.400;2023-04-03T03:00:48;3.40;99.90
5850;DHT22;2951;47.712;9.400;2023-04-03T03:03:15;3.40;99.90
5850;DHT22;2951;47.712;9.400;2023-04-03T03:05:43;3.40;99.90
5850;DHT22;2951;47.712;9.400;2023-04-03T03:08:10;3.30;99.90
5850;DHT22;2951;47.712;9.400;2023-04-03T03:10:36;3.20;99.90
5850;DHT22;2951;47.712;9.400;2023-04-03T03:13:03;3.20;99.90
5850;DHT22;2951;47.712;9.400;2023-04-03T03:15:30;3.20;99.90
5850;DHT22;2951;47.712;9.400;2023-04-03T03:17:58;3.10;99.90
5850;DHT22;2951;47.712;9.400;2023-04-03T03:20:25;3.00;99.90
5850;DHT22;2951;47.712;9.400;2023-04-03T03:22:52;2.90;99.90
5850;DHT22;2951;47.712;9.400;2023-04-03T03:25:19;2.90;99.90
5850;DHT22;2951;47.712;9.400;2023-04-03T03:27:46;2.90;99.90
5850;DHT22;2951;47.712;9.400;2023-04-03T03:30:13;2.90;99.90
5850;DHT22;2951;47.712;9.400;2023-04-03T03:32:39;3.00;99.90
5850;DHT22;2951;47.712;9.400;2023-04-03T03:35:06;2.90;99.90
5850;DHT22;2951;47.712;9.400;2023-04-03T03:37:33;2.90;99.90
5850;DHT22;2951;47.712;9.400;2023-04-03T03:40:00;2.90;99.90
5850;DHT22;2951;47.712;9.400;2023-04-03T03:42:28;2.90;99.90
5850;DHT22;2951;47.712;9.400;2023-04-03T03:44:56;2.90;99.90
5850;DHT22;2951;47.712;9.400;2023-04-03T03:47:23;2.90;99.90
5850;DHT22;2951;47.712;9.400;2023-04-03T03:49:50;3.00;99.90
5850;DHT22;2951;47.712;9.400;2023-04-03T03:52:17;2.90;99.90
5850;DHT22;2951;47.712;9.400;2023-04-03T03:54:44;3.00;99.90
5850;DHT22;2951;47.712;9.400;2023-04-03T03:57:10;3.00;99.90
5850;DHT22;2951;47.712;9.400;2023-04-03T03:59:37;2.90;99.90
5850;DHT22;2951;47.712;9.400;2023-04-03T04:02:06;2.90;99.90
5850;DHT22;2951;47.712;9.400;2023-04-03T04:04:33;2.90;99.90
5850;DHT22;2951;47.712;9.400;2023-04-03T04:07:02;3.00;99.90
5850;DHT22;2951;47.712;9.400;2023-04-03T04:09:30;3.00;99.90
5850;DHT22;2951;47.712;9.400;2023-04-03T04:11:57;3.00;99.90
5850;DHT22;2951;47.712;9.400;2023-04-03T04:14:24;3.00;99.90
5850;DHT22;2951;47.712;9.400;2023-04-03T04:16:50;3.00;99.90
5850;DHT22;2951;47.712;9.400;2023-04-03T04:19:17;3.00;99.90
5850;DHT22;2951;47.712;9.400;2023-04-03T04:21:44;3.10;99.90
5850;DHT22;2951;47.712;9.400;2023-04-03T04:24:10;3.10;99.90
5850;DHT22;2951;47.712;9.400;2023-04-03T04:26:37;3.10;99.90
5850;DHT22;2951;47.712;9.400;2023-04-03T04:29:04;3.10;99.90
5850;DHT22;2951;47.712;9.400;2023-04-03T04:31:30;3.10;99.90
5850;DHT22;2951;47.712;9.400;2023-04-03T04:33:57;3.20;99.90
5850;DHT22;2951;47.712;9.400;2023-04-03T04:36:24;3.20;99.90
5850;DHT22;2951;47.712;9.400;2023-04-03T04:38:51;3.20;99.90
5850;DHT22;2951;47.712;9.400;2023-04-03T04:41:20;3.20;99.90
5850;DHT22;2951;47.712;9.400;2023-04-03T04:43:49;3.20;99.90
5850;DHT22;2951;47.712;9.400;2023-04-03T04:46:16;3.20;99.90
5850;DHT22;2951;47.712;9.400;2023-04-03T04:48:43;3.10;99.90
5850;DHT22;2951;47.712;9.400;2023-04-03T04:51:10;3.10;99.90
5850;DHT22;2951;47.712;9.400;2023-04-03T04:53:37;3.10;99.90
5850;DHT22;2951;47.712;9.400;2023-04-03T04:56:03;3.10;99.90
5850;DHT22;2951;47.712;9.400;2023-04-03T04:58:30;3.10;99.90
5850;DHT22;2951;47.712;9.400;2023-04-03T05:01:00;3.10;99.90
5850;DHT22;2951;47.712;9.400;2023-04-03T05:03:27;3.30;99.90
5850;DHT22;2951;47.712;9.400;2023-04-03T05:05:54;3.30;99.90
5850;DHT22;2951;47.712;9.400;2023-04-03T05:08:21;3.40;99.90
5850;DHT22;2951;47.712;9.400;2023-04-03T05:10:47;3.40;99.90
5850;DHT22;2951;47.712;9.400;2023-04-03T05:13:14;3.40;99.90
5850;DHT22;2951;47.712;9.400;2023-04-03T05:15:41;3.40;99.90
5850;DHT22;2951;47.712;9.400;2023-04-03T05:18:08;3.30;99.90
5850;DHT22;2951;47.712;9.400;2023-04-03T05:20:34;3.30;99.90
5850;DHT22;2951;47.712;9.400;2023-04-03T05:23:01;3.30;99.90
5850;DHT22;2951;47.712;9.400;2023-04-03T05:25:28;3.20;99.90
5850;DHT22;2951;47.712;9.400;2023-04-03T05:27:55;3.20;99.90
5850;DHT22;2951;47.712;9.400;2023-04-03T05:30:22;3.20;99.90
5850;DHT22;2951;47.712;9.400;2023-04-03T05:32:48;3.30;99.90
5850;DHT22;2951;47.712;9.400;2023-04-03T05:35:15;3.30;99.90
5850;DHT22;2951;47.712;9.400;2023-04-03T05:37:42;3.30;99.90
5850;DHT22;2951;47.712;9.400;2023-04-03T05:40:09;3.40;99.90
5850;DHT22;2951;47.712;9.400;2023-04-03T05:42:35;3.40;99.90
5850;DHT22;2951;47.712;9.400;2023-04-03T05:45:02;3.40;99.90
5850;DHT22;2951;47.712;9.400;2023-04-03T05:47:29;3.40;99.90
5850;DHT22;2951;47.712;9.400;2023-04-03T05:49:57;3.40;99.90
5850;DHT22;2951;47.712;9.400;2023-04-03T05:52:28;3.40;99.90
5850;DHT22;2951;47.712;9.400;2023-04-03T05:54:55;3.40;99.90
5850;DHT22;2951;47.712;9.400;2023-04-03T05:57:22;3.40;99.90
5850;DHT22;2951;47.712;9.400;2023-04-03T05:59:49;3.30;99.90
5850;DHT22;2951;47.712;9.400;2023-04-03T06:02:17;3.40;99.90
5850;DHT22;2951;47.712;9.400;2023-04-03T06:04:44;3.40;99.90
5850;DHT22;2951;47.712;9.400;2023-04-03T06:07:11;3.40;99.90
5850;DHT22;2951;47.712;9.400;2023-04-03T06:09:39;3.50;99.90
5850;DHT22;2951;47.712;9.400;2023-04-03T06:12:06;3.50;99.90
5850;DHT22;2951;47.712;9.400;2023-04-03T06:14:32;3.50;99.90
5850;DHT22;2951;47.712;9.400;2023-04-03T06:16:59;3.50;99.90
5850;DHT22;2951;47.712;9.400;2023-04-03T06:19:26;3.60;99.90
5850;DHT22;2951;47.712;9.400;2023-04-03T06:21:53;3.60;99.90
5850;DHT22;2951;47.712;9.400;2023-04-03T06:24:19;3.60;99.90
5850;DHT22;2951;47.712;9.400;2023-04-03T06:26:48;3.70;99.90
5850;DHT22;2951;47.712;9.400;2023-04-03T06:29:15;3.70;99.90
5850;DHT22;2951;47.712;9.400;2023-04-03T06:31:42;3.70;99.90
5850;DHT22;2951;47.712;9.400;2023-04-03T06:34:09;3.70;99.90
5850;DHT22;2951;47.712;9.400;2023-04-03T06:36:37;3.60;99.90
5850;DHT22;2951;47.712;9.400;2023-04-03T06:39:05;3.70;99.90
5850;DHT22;2951;47.712;9.400;2023-04-03T06:41:31;3.80;99.90
5850;DHT22;2951;47.712;9.400;2023-04-03T06:43:58;3.80;99.90
5850;DHT22;2951;47.712;9.400;2023-04-03T06:46:25;3.80;99.90
5850;DHT22;2951;47.712;9.400;2023-04-03T06:48:52;3.80;99.90
5850;DHT22;2951;47.712;9.400;2023-04-03T06:51:27;3.70;99.90
5850;DHT22;2951;47.712;9.400;2023-04-03T06:53:57;3.80;99.90
5850;DHT22;2951;47.712;9.400;2023-04-03T06:56:24;3.90;99.90
5850;DHT22;2951;47.712;9.400;2023-04-03T06:58:53;4.00;99.90
5850;DHT22;2951;47.712;9.400;2023-04-03T07:01:21;4.10;99.90
5850;DHT22;2951;47.712;9.400;2023-04-03T07:03:47;4.20;99.90
5850;DHT22;2951;47.712;9.400;2023-04-03T07:06:15;4.10;99.90
5850;DHT22;2951;47.712;9.400;2023-04-03T07:08:42;4.20;99.90
5850;DHT22;2951;47.712;9.400;2023-04-03T07:11:09;4.20;99.90
5850;DHT22;2951;47.712;9.400;2023-04-03T07:13:36;4.30;99.90
5850;DHT22;2951;47.712;9.400;2023-04-03T07:16:05;4.30;99.90
5850;DHT22;2951;47.712;9.400;2023-04-03T07:18:32;4.40;99.90
5850;DHT22;2951;47.712;9.400;2023-04-03T07:20:59;4.30;99.90
5850;DHT22;2951;47.712;9.400;2023-04-03T07:23:26;4.40;99.90
5850;DHT22;2951;47.712;9.400;2023-04-03T07:25:53;4.30;99.90
5850;DHT22;2951;47.712;9.400;2023-04-03T07:28:20;4.40;99.90
5850;DHT22;2951;47.712;9.400;2023-04-03T07:30:49;4.50;99.90
5850;DHT22;2951;47.712;9.400;2023-04-03T07:33:17;4.50;99.90
5850;DHT22;2951;47.712;9.400;2023-04-03T07:35:44;4.40;99.90
5850;DHT22;2951;47.712;9.400;2023-04-03T07:38:11;4.30;99.90
5850;DHT22;2951;47.712;9.400;2023-04-03T07:40:39;4.10;99.90
5850;DHT22;2951;47.712;9.400;2023-04-03T07:43:06;4.20;99.90
5850;DHT22;2951;47.712;9.400;2023-04-03T07:45:36;4.20;99.90
5850;DHT22;2951;47.712;9.400;2023-04-03T07:48:03;4.30;99.90
5850;DHT22;2951;47.712;9.400;2023-04-03T07:50:30;4.50;99.90
5850;DHT22;2951;47.712;9.400;2023-04-03T07:52:58;4.60;99.90
5850;DHT22;2951;47.712;9.400;2023-04-03T07:55:25;4.60;99.90
5850;DHT22;2951;47.712;9.400;2023-04-03T07:57:51;4.80;99.90
5850;DHT22;2951;47.712;9.400;2023-04-03T08:00:18;4.60;99.90
5850;DHT22;2951;47.712;9.400;2023-04-03T08:02:47;4.60;99.90
5850;DHT22;2951;47.712;9.400;2023-04-03T08:05:20;4.70;99.90
5850;DHT22;2951;47.712;9.400;2023-04-03T08:07:47;4.60;99.90
5850;DHT22;2951;47.712;9.400;2023-04-03T08:10:14;4.50;99.90
5850;DHT22;2951;47.712;9.400;2023-04-03T08:12:41;4.50;99.90
5850;DHT22;2951;47.712;9.400;2023-04-03T08:15:08;4.60;99.90
5850;DHT22;2951;47.712;9.400;2023-04-03T08:17:35;4.60;99.90
5850;DHT22;2951;47.712;9.400;2023-04-03T08:20:03;4.80;99.90
5850;DHT22;2951;47.712;9.400;2023-04-03T08:22:32;4.90;99.90
5850;DHT22;2951;47.712;9.400;2023-04-03T08:24:59;4.90;99.90
5850;DHT22;2951;47.712;9.400;2023-04-03T08:27:26;5.10;99.90
5850;DHT22;2951;47.712;9.400;2023-04-03T08:29:54;5.10;99.90
5850;DHT22;2951;47.712;9.400;2023-04-03T08:32:20;5.10;99.90
5850;DHT22;2951;47.712;9.400;2023-04-03T08:34:47;5.10;99.90
5850;DHT22;2951;47.712;9.400;2023-04-03T08:37:14;4.90;99.90
5850;DHT22;2951;47.712;9.400;2023-04-03T08:39:42;5.00;99.90
5850;DHT22;2951;47.712;9.400;2023-04-03T08:45:03;5.00;99.90
5850;DHT22;2951;47.712;9.400;2023-04-03T08:50:06;5.30;99.90
5850;DHT22;2951;47.712;9.400;2023-04-03T08:52:38;5.20;99.90
5850;DHT22;2951;47.712;9.400;2023-04-03T08:55:28;5.40;99.90
5850;DHT22;2951;47.712;9.400;2023-04-03T08:57:59;5.30;99.90
5850;DHT22;2951;47.712;9.400;2023-04-03T09:00:28;5.60;99.90
5850;DHT22;2951;47.712;9.400;2023-04-03T09:02:56;5.40;99.90
5850;DHT22;2951;47.712;9.400;2023-04-03T09:08:00;5.40;99.90
5850;DHT22;2951;47.712;9.400;2023-04-03T09:10:33;5.70;99.90
5850;DHT22;2951;47.712;9.400;2023-04-03T09:15:30;6.00;99.90
5850;DHT22;2951;47.712;9.400;2023-04-03T09:18:21;6.00;99.90
5850;DHT22;2951;47.712;9.400;2023-04-03T09:28:58;6.30;99.90
5850;DHT22;2951;47.712;9.400;2023-04-03T09:31:29;6.30;99.90
5850;DHT22;2951;47.712;9.400;2023-04-03T09:33:57;6.20;99.90
5850;DHT22;2951;47.712;9.400;2023-04-03T09:36:42;6.10;99.90
5850;DHT22;2951;47.712;9.400;2023-04-03T09:39:10;6.10;99.90
5850;DHT22;2951;47.712;9.400;2023-04-03T09:41:40;6.20;99.90
5850;DHT22;2951;47.712;9.400;2023-04-03T09:44:20;6.30;99.90
5850;DHT22;2951;47.712;9.400;2023-04-03T09:46:47;6.40;99.90
5850;DHT22;2951;47.712;9.400;2023-04-03T09:49:14;6.60;99.90
5850;DHT22;2951;47.712;9.400;2023-04-03T09:51:41;6.60;99.90
5850;DHT22;2951;47.712;9.400;2023-04-03T09:54:23;6.50;99.90
5850;DHT22;2951;47.712;9.400;2023-04-03T09:56:50;6.50;99.90
5850;DHT22;2951;47.712;9.400;2023-04-03T09:59:18;6.50;99.90
5850;DHT22;2951;47.712;9.400;2023-04-03T10:01:58;6.70;99.90
5850;DHT22;2951;47.712;9.400;2023-04-03T10:04:25;6.70;99.90
5850;DHT22;2951;47.712;9.400;2023-04-03T10:07:02;7.00;99.90
5850;DHT22;2951;47.712;9.400;2023-04-03T10:09:30;6.80;99.90
5850;DHT22;2951;47.712;9.400;2023-04-03T10:14:23;6.40;99.90
5850;DHT22;2951;47.712;9.400;2023-04-03T10:16:53;6.50;99.90
5850;DHT22;2951;47.712;9.400;2023-04-03T10:21:58;6.60;99.90
5850;DHT22;2951;47.712;9.400;2023-04-03T10:27:19;6.60;99.90
5850;DHT22;2951;47.712;9.400;2023-04-03T10:35:09;7.10;99.90
5850;DHT22;2951;47.712;9.400;2023-04-03T10:37:48;6.70;99.90
5850;DHT22;2951;47.712;9.400;2023-04-03T10:40:39;6.80;99.90
5850;DHT22;2951;47.712;9.400;2023-04-03T10:51:00;7.40;99.90
5850;DHT22;2951;47.712;9.400;2023-04-03T10:53:35;7.30;99.90
5850;DHT22;2951;47.712;9.400;2023-04-03T10:58:42;7.00;99.90
5850;DHT22;2951;47.712;9.400;2023-04-03T11:01:11;6.80;99.90
5850;DHT22;2951;47.712;9.400;2023-04-03T11:03:40;6.80;99.90
5850;DHT22;2951;47.712;9.400;2023-04-03T11:06:10;6.60;99.90
5850;DHT22;2951;47.712;9.400;2023-04-03T11:11:16;7.00;99.90
5850;DHT22;2951;47.712;9.400;2023-04-03T11:13:55;7.10;99.90
5850;DHT22;2951;47.712;9.400;2023-04-03T11:16:24;7.00;99.90
5850;DHT22;2951;47.712;9.400;2023-04-03T11:18:53;7.30;99.90
5850;DHT22;2951;47.712;9.400;2023-04-03T11:21:33;7.20;99.90
5850;DHT22;2951;47.712;9.400;2023-04-03T11:24:02;7.20;99.90
5850;DHT22;2951;47.712;9.400;2023-04-03T11:26:31;7.30;99.90
5850;DHT22;2951;47.712;9.400;2023-04-03T11:29:06;7.50;99.90
5850;DHT22;2951;47.712;9.400;2023-04-03T11:37:35;7.80;99.90
5850;DHT22;2951;47.712;9.400;2023-04-03T11:40:08;7.90;99.90
5850;DHT22;2951;47.712;9.400;2023-04-03T11:42:48;7.70;99.90
5850;DHT22;2951;47.712;9.400;2023-04-03T11:47:56;7.50;99.90
5850;DHT22;2951;47.712;9.400;2023-04-03T11:53:02;7.50;99.90
5850;DHT22;2951;47.712;9.400;2023-04-03T12:06:42;7.70;99.90
5850;DHT22;2951;47.712;9.400;2023-04-03T12:08:45;7.70;99.90
5850;DHT22;2951;47.712;9.400;2023-04-03T12:24:04;7.60;99.90
5850;DHT22;2951;47.712;9.400;2023-04-03T12:26:39;7.80;99.90
5850;DHT22;2951;47.712;9.400;2023-04-03T12:29:33;7.50;99.90
5850;DHT22;2951;47.712;9.400;2023-04-03T12:32:14;7.50;99.90
5850;DHT22;2951;47.712;9.400;2023-04-03T12:35:05;7.20;99.90
5850;DHT22;2951;47.712;9.400;2023-04-03T12:40:07;7.50;99.90
5850;DHT22;2951;47.712;9.400;2023-04-03T12:47:38;7.70;99.90
5850;DHT22;2951;47.712;9.400;2023-04-03T12:52:45;7.60;99.90
5850;DHT22;2951;47.712;9.400;2023-04-03T12:55:18;7.70;99.90
5850;DHT22;2951;47.712;9.400;2023-04-03T12:57:45;7.90;99.90
5850;DHT22;2951;47.712;9.400;2023-04-03T13:00:46;7.90;99.90
5850;DHT22;2951;47.712;9.400;2023-04-03T13:03:06;7.70;99.90
5850;DHT22;2951;47.712;9.400;2023-04-03T13:05:43;7.80;99.90
5850;DHT22;2951;47.712;9.400;2023-04-03T13:08:12;7.90;99.90
5850;DHT22;2951;47.712;9.400;2023-04-03T13:10:53;7.70;99.90
5850;DHT22;2951;47.712;9.400;2023-04-03T13:13:20;7.90;99.90
5850;DHT22;2951;47.712;9.400;2023-04-03T13:15:49;7.90;99.90
5850;DHT22;2951;47.712;9.400;2023-04-03T13:18:24;7.80;99.90
5850;DHT22;2951;47.712;9.400;2023-04-03T13:20:50;7.80;99.90
5850;DHT22;2951;47.712;9.400;2023-04-03T13:23:18;7.40;99.90
5850;DHT22;2951;47.712;9.400;2023-04-03T13:25:47;7.80;99.90
5850;DHT22;2951;47.712;9.400;2023-04-03T13:28:15;7.80;99.90
5850;DHT22;2951;47.712;9.400;2023-04-03T13:33:30;7.90;99.90
5850;DHT22;2951;47.712;9.400;2023-04-03T13:36:08;8.10;99.90
5850;DHT22;2951;47.712;9.400;2023-04-03T13:38:38;8.30;99.90
5850;DHT22;2951;47.712;9.400;2023-04-03T13:41:20;8.00;99.90
5850;DHT22;2951;47.712;9.400;2023-04-03T13:43:47;7.80;99.90
5850;DHT22;2951;47.712;9.400;2023-04-03T13:58:54;7.10;99.90
5850;DHT22;2951;47.712;9.400;2023-04-03T14:01:22;7.40;99.90
5850;DHT22;2951;47.712;9.400;2023-04-03T14:03:59;7.40;99.90
5850;DHT22;2951;47.712;9.400;2023-04-03T14:06:28;7.40;99.90
5850;DHT22;2951;47.712;9.400;2023-04-03T14:08:56;7.40;99.90
5850;DHT22;2951;47.712;9.400;2023-04-03T14:11:26;7.50;99.90
5850;DHT22;2951;47.712;9.400;2023-04-03T14:13:55;7.60;99.90
5850;DHT22;2951;47.712;9.400;2023-04-03T14:16:25;7.70;99.90
5850;DHT22;2951;47.712;9.400;2023-04-03T14:18:53;7.60;99.90
5850;DHT22;2951;47.712;9.400;2023-04-03T14:21:20;7.40;99.90
5850;DHT22;2951;47.712;9.400;2023-04-03T14:23:47;7.30;99.90
5850;DHT22;2951;47.712;9.400;2023-04-03T14:26:16;7.50;99.90
5850;DHT22;2951;47.712;9.400;2023-04-03T14:28:45;7.30;99.90
5850;DHT22;2951;47.712;9.400;2023-04-03T14:31:12;7.40;99.90
5850;DHT22;2951;47.712;9.400;2023-04-03T14:33:39;7.60;99.90
5850;DHT22;2951;47.712;9.400;2023-04-03T14:38:54;7.50;99.90
5850;DHT22;2951;47.712;9.400;2023-04-03T14:41:22;7.20;99.90
5850;DHT22;2951;47.712;9.400;2023-04-03T14:43:50;7.30;99.90
5850;DHT22;2951;47.712;9.400;2023-04-03T14:46:28;7.10;99.90
5850;DHT22;2951;47.712;9.400;2023-04-03T14:49:12;7.20;99.90
5850;DHT22;2951;47.712;9.400;2023-04-03T14:51:40;7.20;99.90
5850;DHT22;2951;47.712;9.400;2023-04-03T14:54:14;7.10;99.90
5850;DHT22;2951;47.712;9.400;2023-04-03T14:56:41;7.10;99.90
5850;DHT22;2951;47.712;9.400;2023-04-03T14:59:11;7.10;99.90
5850;DHT22;2951;47.712;9.400;2023-04-03T15:01:38;7.20;99.90
5850;DHT22;2951;47.712;9.400;2023-04-03T15:04:09;6.90;99.90
5850;DHT22;2951;47.712;9.400;2023-04-03T15:06:36;6.90;99.90
5850;DHT22;2951;47.712;9.400;2023-04-03T15:09:03;7.00;99.90
5850;DHT22;2951;47.712;9.400;2023-04-03T15:11:30;7.10;99.90
5850;DHT22;2951;47.712;9.400;2023-04-03T15:13:56;7.40;99.90
5850;DHT22;2951;47.712;9.400;2023-04-03T15:16:23;7.30;99.90
5850;DHT22;2951;47.712;9.400;2023-04-03T15:18:50;7.20;99.90
5850;DHT22;2951;47.712;9.400;2023-04-03T15:21:16;7.20;99.90
5850;DHT22;2951;47.712;9.400;2023-04-03T15:23:43;7.10;99.90
5850;DHT22;2951;47.712;9.400;2023-04-03T15:26:10;7.00;99.90
5850;DHT22;2951;47.712;9.400;2023-04-03T15:28:38;7.00;99.90
5850;DHT22;2951;47.712;9.400;2023-04-03T15:31:05;7.00;99.90
5850;DHT22;2951;47.712;9.400;2023-04-03T15:33:32;7.00;99.90
5850;DHT22;2951;47.712;9.400;2023-04-03T15:35:59;6.80;99.90
5850;DHT22;2951;47.712;9.400;2023-04-03T15:38:32;6.80;99.90
5850;DHT22;2951;47.712;9.400;2023-04-03T15:40:59;6.90;99.90
5850;DHT22;2951;47.712;9.400;2023-04-03T15:43:26;7.00;99.90
5850;DHT22;2951;47.712;9.400;2023-04-03T15:45:53;6.90;99.90
5850;DHT22;2951;47.712;9.400;2023-04-03T15:48:22;7.00;99.90
5850;DHT22;2951;47.712;9.400;2023-04-03T15:50:49;6.90;99.90
5850;DHT22;2951;47.712;9.400;2023-04-03T15:53:16;6.90;99.90
5850;DHT22;2951;47.712;9.400;2023-04-03T15:55:43;6.90;99.90
5850;DHT22;2951;47.712;9.400;2023-04-03T15:58:09;6.90;99.90
5850;DHT22;2951;47.712;9.400;2023-04-03T16:00:39;6.80;99.90
5850;DHT22;2951;47.712;9.400;2023-04-03T16:03:11;6.70;99.90
5850;DHT22;2951;47.712;9.400;2023-04-03T16:05:38;6.60;99.90
5850;DHT22;2951;47.712;9.400;2023-04-03T16:08:06;6.50;99.90
5850;DHT22;2951;47.712;9.400;2023-04-03T16:10:34;6.50;99.90
5850;DHT22;2951;47.712;9.400;2023-04-03T16:13:02;6.40;99.90
5850;DHT22;2951;47.712;9.400;2023-04-03T16:15:29;6.50;99.90
5850;DHT22;2951;47.712;9.400;2023-04-03T16:17:57;6.50;99.90
5850;DHT22;2951;47.712;9.400;2023-04-03T16:20:24;6.30;99.90
5850;DHT22;2951;47.712;9.400;2023-04-03T16:22:52;6.30;99.90
5850;DHT22;2951;47.712;9.400;2023-04-03T16:25:19;6.20;99.90
5850;DHT22;2951;47.712;9.400;2023-04-03T16:27:46;6.30;99.90
5850;DHT22;2951;47.712;9.400;2023-04-03T16:30:13;6.40;99.90
5850;DHT22;2951;47.712;9.400;2023-04-03T16:32:40;6.30;99.90
5850;DHT22;2951;47.712;9.400;2023-04-03T16:35:07;6.20;99.90
5850;DHT22;2951;47.712;9.400;2023-04-03T16:37:37;6.20;99.90
5850;DHT22;2951;47.712;9.400;2023-04-03T16:40:04;6.30;99.90
5850;DHT22;2951;47.712;9.400;2023-04-03T16:42:31;6.20;99.90
5850;DHT22;2951;47.712;9.400;2023-04-03T16:44:59;6.10;99.90
5850;DHT22;2951;47.712;9.400;2023-04-03T16:47:29;6.20;99.90
5850;DHT22;2951;47.712;9.400;2023-04-03T16:49:56;6.20;99.90
5850;DHT22;2951;47.712;9.400;2023-04-03T16:52:23;6.00;99.90
5850;DHT22;2951;47.712;9.400;2023-04-03T16:54:50;6.00;99.90
5850;DHT22;2951;47.712;9.400;2023-04-03T16:57:22;6.10;99.90
5850;DHT22;2951;47.712;9.400;2023-04-03T16:59:51;6.00;99.90
5850;DHT22;2951;47.712;9.400;2023-04-03T17:02:18;6.00;99.90
5850;DHT22;2951;47.712;9.400;2023-04-03T17:04:45;6.00;99.90
5850;DHT22;2951;47.712;9.400;2023-04-03T17:07:12;5.90;99.90
5850;DHT22;2951;47.712;9.400;2023-04-03T17:09:38;6.00;99.90
5850;DHT22;2951;47.712;9.400;2023-04-03T17:12:05;6.00;99.90
5850;DHT22;2951;47.712;9.400;2023-04-03T17:14:35;5.90;99.90
5850;DHT22;2951;47.712;9.400;2023-04-03T17:17:02;5.90;99.90
5850;DHT22;2951;47.712;9.400;2023-04-03T17:19:28;5.90;99.90
5850;DHT22;2951;47.712;9.400;2023-04-03T17:21:56;5.80;99.90
5850;DHT22;2951;47.712;9.400;2023-04-03T17:24:23;5.80;99.90
5850;DHT22;2951;47.712;9.400;2023-04-03T17:26:49;5.80;99.90
5850;DHT22;2951;47.712;9.400;2023-04-03T17:29:16;5.80;99.90
5850;DHT22;2951;47.712;9.400;2023-04-03T17:31:43;5.80;99.90
5850;DHT22;2951;47.712;9.400;2023-04-03T17:34:10;5.70;99.90
5850;DHT22;2951;47.712;9.400;2023-04-03T17:36:39;5.70;99.90
5850;DHT22;2951;47.712;9.400;2023-04-03T17:39:07;5.70;99.90
5850;DHT22;2951;47.712;9.400;2023-04-03T17:41:34;5.70;99.90
5850;DHT22;2951;47.712;9.400;2023-04-03T17:44:01;5.60;99.90
5850;DHT22;2951;47.712;9.400;2023-04-03T17:46:27;5.50;99.90
5850;DHT22;2951;47.712;9.400;2023-04-03T17:48:56;5.50;99.90
5850;DHT22;2951;47.712;9.400;2023-04-03T17:51:25;5.50;99.90
5850;DHT22;2951;47.712;9.400;2023-04-03T17:53:54;5.40;99.90
5850;DHT22;2951;47.712;9.400;2023-04-03T17:56:24;5.40;99.90
5850;DHT22;2951;47.712;9.400;2023-04-03T17:58:54;5.20;99.90
5850;DHT22;2951;47.712;9.400;2023-04-03T18:01:29;5.20;99.90
5850;DHT22;2951;47.712;9.400;2023-04-03T18:03:57;5.10;99.90
5850;DHT22;2951;47.712;9.400;2023-04-03T18:06:25;5.10;99.90
5850;DHT22;2951;47.712;9.400;2023-04-03T18:08:57;5.00;99.90
5850;DHT22;2951;47.712;9.400;2023-04-03T18:11:27;5.10;99.90
5850;DHT22;2951;47.712;9.400;2023-04-03T18:13:54;5.10;99.90
5850;DHT22;2951;47.712;9.400;2023-04-03T18:16:23;5.10;99.90
5850;DHT22;2951;47.712;9.400;2023-04-03T18:18:49;5.10;99.90
5850;DHT22;2951;47.712;9.400;2023-04-03T18:21:36;5.10;99.90
5850;DHT22;2951;47.712;9.400;2023-04-03T18:24:03;5.20;99.90